.
WxDataArchive / Data Records for 2015-10-08
2015-10-07 October 2015 2015-10-09

Data Records for Thursday, 08 October 2015

Time	Temp	Chill	HIndex	Humid	Dewpt	 Wind 	HiWind	WindDir	Rain 	Barom
-----	----	-----	------	-----	-----	------	------	-------	-----	-----
00:00	56.9	56.9	56.9	82	51.5	0	0	---	0.00	30.105 
00:05	56.7	56.7	56.7	82	51.3	0	0	---	0.00	30.105 
00:10	56.6	56.6	56.6	82	51.2	0	0	---	0.00	30.105 
00:15	56.5	56.5	56.5	83	51.4	0	0	---	0.00	30.101 
00:20	56.3	56.3	56.3	83	51.2	0	0	---	0.00	30.101 
00:25	56.2	56.2	56.2	83	51.1	0	0	---	0.00	30.101 
00:30	56.0	56.0	56.0	84	51.2	0	0	---	0.00	30.099 
00:35	56.0	56.0	56.0	84	51.2	0	0	---	0.00	30.099 
00:40	55.9	55.9	55.9	84	51.1	0	0	---	0.00	30.099 
00:45	55.7	55.7	55.7	84	50.9	0	0	---	0.00	30.095 
00:50	55.6	55.6	55.6	84	50.8	0	0	---	0.00	30.095 
00:55	55.6	55.6	55.6	84	50.8	0	0	---	0.00	30.095 
01:00	55.4	55.4	55.4	85	51.0	0	0	---	0.00	30.095 
01:05	55.3	55.3	55.3	85	50.9	0	0	---	0.00	30.095 
01:10	55.3	55.3	55.3	85	50.9	0	0	---	0.00	30.095 
01:15	55.1	55.1	55.1	85	50.7	0	0	---	0.00	30.086 
01:20	55.0	55.0	55.0	85	50.6	0	0	---	0.00	30.086 
01:25	54.8	54.8	54.8	86	50.7	0	0	---	0.00	30.086 
01:30	54.8	54.8	54.8	86	50.7	0	0	---	0.00	30.080 
01:35	54.8	54.8	54.8	86	50.7	0	0	---	0.00	30.080 
01:40	54.8	54.8	54.8	86	50.7	0	0	---	0.00	30.080 
01:45	54.7	54.7	54.7	86	50.6	0	0	---	0.00	30.079 
01:50	54.7	54.7	54.7	86	50.6	0	0	---	0.00	30.079 
01:55	54.7	54.7	54.7	86	50.6	0	0	---	0.00	30.079 
02:00	54.7	54.7	54.7	86	50.6	0	0	---	0.00	30.078 
02:05	54.7	54.7	54.7	86	50.6	0	0	---	0.00	30.078 
02:10	54.5	54.5	54.5	86	50.4	0	0	---	0.00	30.078 
02:15	54.4	54.4	54.4	86	50.3	0	0	---	0.00	30.075 
02:20	54.4	54.4	54.4	86	50.3	0	0	---	0.00	30.075 
02:25	54.2	54.2	54.2	86	50.1	0	0	---	0.00	30.075 
02:30	54.1	54.1	54.1	86	50.0	0	0	---	0.00	30.079 
02:35	53.9	53.9	53.9	86	49.8	0	0	---	0.00	30.079 
02:40	53.8	53.8	53.8	87	50.0	0	0	---	0.00	30.079 
02:45	53.6	53.6	53.6	87	49.8	0	0	---	0.00	30.080 
02:50	53.5	53.5	53.5	87	49.7	0	0	---	0.00	30.080 
02:55	53.3	53.3	53.3	87	49.5	0	0	---	0.00	30.080 
03:00	53.1	53.1	53.1	87	49.3	0	0	---	0.00	30.079 
03:05	52.9	52.9	52.9	88	49.4	0	0	---	0.00	30.079 
03:10	52.6	52.6	52.6	88	49.1	0	0	---	0.00	30.079 
03:15	52.5	52.5	52.5	88	49.0	0	0	---	0.00	30.078 
03:20	52.5	52.5	52.5	89	49.4	0	0	---	0.00	30.078 
03:25	52.3	52.3	52.3	89	49.2	0	0	---	0.00	30.078 
03:30	52.2	52.2	52.2	89	49.1	0	0	---	0.00	30.075 
03:35	52.0	52.0	52.0	89	48.9	0	0	---	0.00	30.075 
03:40	52.0	52.0	52.0	89	48.9	0	0	---	0.00	30.075 
03:45	51.9	51.9	51.9	90	49.1	0	0	---	0.00	30.068 
03:50	51.9	51.9	51.9	90	49.1	0	0	---	0.00	30.068 
03:55	51.7	51.7	51.7	90	48.9	0	0	---	0.00	30.068 
04:00	51.7	51.7	51.7	90	48.9	0	0	---	0.00	30.066 
04:05	51.7	51.7	51.7	91	49.2	0	0	---	0.00	30.066 
04:10	51.7	51.7	51.7	91	49.2	0	0	---	0.00	30.066 
04:15	51.9	51.9	51.9	91	49.4	0	0	---	0.00	30.062 
04:20	52.0	52.0	52.0	91	49.5	0	0	---	0.00	30.062 
04:25	52.0	52.0	52.0	91	49.5	0	0	---	0.00	30.062 
04:30	52.2	52.2	52.2	91	49.7	0	0	---	0.00	30.059 
04:35	52.3	52.3	52.3	91	49.8	0	0	---	0.00	30.059 
04:40	52.5	52.5	52.5	91	49.9	0	1	292	0.00	30.059 
04:45	52.6	52.6	52.6	91	50.0	0	0	---	0.00	30.059 
04:50	52.5	52.5	52.5	90	49.7	0	0	---	0.00	30.059 
04:55	52.5	52.5	52.5	90	49.7	0	0	---	0.00	30.059 
05:00	52.3	52.3	52.3	90	49.5	0	0	---	0.00	30.058 
05:05	52.2	52.2	52.2	90	49.4	0	0	---	0.00	30.058 
05:10	52.2	52.2	52.2	90	49.4	0	0	---	0.00	30.058 
05:15	52.0	52.0	52.0	90	49.2	0	0	---	0.00	30.059 
05:20	52.2	52.2	52.2	91	49.7	0	0	---	0.00	30.059 
05:25	52.2	52.2	52.2	91	49.7	0	0	---	0.00	30.059 
05:30	52.2	52.2	52.2	91	49.7	0	0	---	0.00	30.054 
05:35	52.0	52.0	52.0	91	49.5	0	0	---	0.00	30.054 
05:40	52.2	52.2	52.2	91	49.7	0	1	292	0.00	30.054 
05:45	52.2	52.2	52.2	91	49.7	0	0	---	0.00	30.060 
05:50	52.3	52.3	52.3	92	50.0	0	0	---	0.00	30.060 
05:55	52.5	52.5	52.5	92	50.2	0	0	---	0.00	30.060 
06:00	52.8	52.8	52.8	92	50.5	0	0	---	0.00	30.062 
06:05	52.9	52.9	52.9	92	50.6	0	0	---	0.00	30.062 
06:10	53.1	53.1	53.1	92	50.8	0	0	---	0.00	30.062 
06:15	53.1	53.1	53.1	92	50.8	0	1	292	0.00	30.063 
06:20	53.2	53.2	53.2	92	50.9	0	0	---	0.00	30.063 
06:25	53.2	53.2	53.2	92	50.9	0	1	292	0.00	30.063 
06:30	53.2	53.2	53.2	92	50.9	0	1	292	0.00	30.065 
06:35	53.2	53.2	53.2	92	50.9	0	2	292	0.00	30.065 
06:40	53.3	53.3	53.3	92	51.0	0	1	292	0.00	30.065 
06:45	53.3	53.3	53.3	93	51.3	0	1	292	0.00	30.065 
06:50	53.5	53.5	53.5	93	51.5	0	2	292	0.00	30.065 
06:55	53.5	53.5	53.5	93	51.5	0	1	292	0.00	30.065 
07:00	53.6	53.6	53.6	93	51.6	0	1	292	0.00	30.062 
07:05	53.6	53.6	53.6	93	51.6	0	1	292	0.00	30.062 
07:10	53.8	53.8	53.8	93	51.8	0	3	292	0.00	30.062 
07:15	53.8	53.8	53.8	94	52.1	0	3	292	0.00	30.066 
07:20	53.8	53.8	53.8	94	52.1	0	2	292	0.00	30.066 
07:25	53.8	53.8	53.8	94	52.1	0	4	338	0.00	30.066 
07:30	53.8	53.8	53.8	94	52.1	0	1	338	0.00	30.062 
07:35	53.8	53.8	53.8	94	52.1	0	3	338	0.00	30.062 
07:40	53.8	53.8	53.8	94	52.1	0	2	338	0.00	30.062 
07:45	53.8	53.8	53.8	95	52.4	0	2	338	0.00	30.060 
07:50	53.8	53.8	53.8	95	52.4	0	3	338	0.00	30.060 
07:55	53.8	53.8	53.8	95	52.4	0	0	---	0.00	30.060 
08:00	53.8	53.8	53.8	95	52.4	0	1	338	0.00	30.063 
08:05	53.9	53.9	53.9	95	52.5	0	1	338	0.00	30.063 
08:10	53.9	53.9	53.9	95	52.5	0	2	338	0.00	30.063 
08:15	53.9	53.9	53.9	95	52.5	0	1	338	0.00	30.064 
08:20	54.1	54.1	54.1	95	52.7	0	1	338	0.00	30.064 
08:25	54.1	54.1	54.1	95	52.7	0	3	0	0.00	30.064 
08:30	54.1	54.1	54.1	95	52.7	0	1	0	0.00	30.060 
08:35	54.2	54.2	54.2	95	52.8	0	1	0	0.00	30.060 
08:40	54.4	54.4	54.4	96	53.3	0	2	0	0.00	30.060 
08:45	54.5	54.5	54.5	96	53.4	0	2	0	0.00	30.062 
08:50	54.5	54.5	54.5	96	53.4	0	1	0	0.00	30.062 
08:55	54.7	54.7	54.7	96	53.6	0	3	45	0.00	30.062 
09:00	54.8	54.8	54.8	96	53.7	0	2	45	0.00	30.068 
09:05	55.0	55.0	55.0	96	53.9	0	2	45	0.00	30.068 
09:10	55.1	55.1	55.1	96	54.0	0	2	45	0.00	30.068 
09:15	55.1	55.1	55.1	96	54.0	0	2	45	0.00	30.066 
09:20	55.3	55.3	55.3	96	54.2	0	2	45	0.00	30.066 
09:25	55.4	55.4	55.4	96	54.3	0	2	45	0.00	30.066 
09:30	55.4	55.4	55.4	96	54.3	0	2	45	0.00	30.068 
09:35	55.4	55.4	55.4	96	54.3	0	1	45	0.00	30.068 
09:40	55.6	55.6	55.6	96	54.5	0	1	45	0.00	30.068 
09:45	55.7	55.7	55.7	96	54.6	0	1	45	0.00	30.068 
09:50	55.9	55.9	55.9	96	54.8	0	1	45	0.00	30.068 
09:55	56.0	56.0	56.0	96	54.9	0	1	45	0.00	30.068 
10:00	56.2	56.2	56.2	96	55.1	0	1	45	0.00	30.069 
10:05	56.5	56.5	56.5	96	55.4	0	1	45	0.00	30.069 
10:10	56.6	56.6	56.6	96	55.5	0	1	45	0.00	30.069 
10:15	56.9	56.9	56.9	96	55.8	0	2	45	0.00	30.067 
10:20	57.5	57.5	57.5	96	56.4	1	3	45	0.00	30.067 
10:25	57.8	57.8	57.8	96	56.7	0	1	45	0.00	30.067 
10:30	58.3	58.3	58.3	96	57.2	0	1	45	0.00	30.062 
10:35	58.6	58.6	58.6	96	57.5	0	3	45	0.00	30.062 
10:40	58.7	58.7	58.7	95	57.3	0	2	45	0.00	30.062 
10:45	59.2	59.2	59.2	95	57.8	0	2	45	0.00	30.057 
10:50	59.6	59.6	59.6	94	57.9	0	2	45	0.00	30.057 
10:55	60.2	60.2	60.2	92	57.9	1	3	45	0.00	30.057 
11:00	61.0	61.0	61.0	90	58.0	0	2	45	0.00	30.051 
11:05	61.8	61.8	61.8	88	58.2	0	2	45	0.00	30.051 
11:10	62.0	62.0	62.0	86	57.8	0	1	45	0.00	30.051 
11:15	62.3	62.3	62.3	86	58.1	0	1	45	0.00	30.050 
11:20	62.9	62.9	62.9	83	57.7	0	2	45	0.00	30.050 
11:25	63.5	63.5	63.5	81	57.6	0	1	45	0.00	30.050 
11:30	64.3	64.3	64.3	80	58.0	0	1	45	0.00	30.041 
11:35	64.8	64.8	64.8	77	57.4	0	1	45	0.00	30.041 
11:40	65.0	65.0	65.0	76	57.2	0	2	45	0.00	30.041 
11:45	65.2	65.2	65.2	75	57.1	1	5	68	0.00	30.033 
11:50	65.3	65.3	65.3	75	57.2	0	2	68	0.00	30.033 
11:55	65.6	65.6	65.6	76	57.8	0	2	68	0.00	30.033 
12:00	66.1	66.1	66.1	72	56.8	0	1	68	0.00	30.031 
12:05	66.4	66.4	66.4	70	56.3	0	1	68	0.00	30.031 
12:10	66.8	66.8	66.8	70	56.7	0	1	68	0.00	30.031 
12:15	66.9	66.9	66.9	70	56.8	0	1	68	0.00	30.021 
12:20	66.9	66.9	66.9	69	56.4	0	1	68	0.00	30.021 
12:25	66.9	66.9	66.9	69	56.4	0	0	---	0.00	30.021 
12:30	67.3	67.3	67.3	69	56.8	0	1	68	0.00	30.018 
12:35	68.3	68.3	68.3	68	57.3	0	1	68	0.00	30.018 
12:40	69.3	69.3	69.3	67	57.9	1	3	68	0.00	30.018 
12:45	70.1	70.1	70.1	64	57.3	0	1	68	0.00	30.003 
12:50	70.9	70.9	70.9	62	57.2	0	2	68	0.00	30.003 
12:55	71.5	71.5	71.5	61	57.3	0	2	112	0.00	30.003 
13:00	71.5	71.5	71.5	61	57.3	1	4	90	0.00	29.998 
13:05	71.1	71.1	71.1	62	57.4	0	2	90	0.00	29.998 
13:10	71.1	71.1	71.1	63	57.9	0	2	90	0.00	29.998 
13:15	71.5	71.5	71.5	63	58.2	0	2	90	0.00	29.992 
13:20	72.1	72.1	72.1	62	58.3	0	1	22	0.00	29.992 
13:25	72.8	72.8	72.8	61	58.6	0	1	22	0.00	29.992 
13:30	73.5	73.5	73.5	60	58.7	0	1	22	0.00	29.980 
13:35	74.2	74.2	74.2	60	59.4	0	1	22	0.00	29.980 
13:40	74.9	74.9	74.9	59	59.6	0	1	22	0.00	29.980 
13:45	75.6	75.6	77.8	57	59.3	0	3	22	0.00	29.965 
13:50	75.8	75.8	77.9	56	59.0	0	2	22	0.00	29.965 
13:55	76.0	76.0	78.1	57	59.6	0	2	22	0.00	29.965 
14:00	76.3	76.3	78.3	57	59.9	0	1	22	0.00	29.952 
14:05	76.5	76.5	78.4	56	59.6	0	1	22	0.00	29.952 
14:10	76.1	76.1	78.1	57	59.7	0	2	22	0.00	29.952 
14:15	76.3	76.3	78.3	55	58.9	0	3	292	0.00	29.947 
14:20	76.3	76.3	78.3	55	58.9	0	2	292	0.00	29.947 
14:25	76.5	76.5	78.4	55	59.1	0	3	315	0.00	29.947 
14:30	76.7	76.7	78.5	55	59.3	1	4	270	0.00	29.934 
14:35	76.7	76.7	78.5	54	58.8	1	4	270	0.00	29.934 
14:40	76.5	76.5	78.4	56	59.6	0	5	270	0.00	29.934 
14:45	76.7	76.7	78.5	55	59.3	0	3	90	0.00	29.927 
14:50	76.7	76.7	78.5	54	58.8	0	1	270	0.00	29.927 
14:55	76.8	76.8	78.6	57	60.4	0	1	270	0.00	29.927 
15:00	77.2	77.2	78.8	54	59.2	0	2	270	0.00	29.916 
15:05	77.2	77.2	78.8	54	59.2	1	4	270	0.00	29.916 
15:10	77.4	77.4	79.0	54	59.4	0	3	270	0.00	29.916 
15:15	77.2	77.2	78.8	54	59.2	1	4	248	0.00	29.912 
15:20	77.4	77.4	78.9	53	58.9	1	5	270	0.00	29.912 
15:25	77.6	77.6	79.1	54	59.6	0	4	270	0.00	29.912 
15:30	77.9	77.9	79.3	53	59.4	0	2	270	0.00	29.901 
15:35	78.1	78.1	79.4	52	59.0	1	3	270	0.00	29.901 
15:40	78.1	78.1	79.4	52	59.0	1	3	270	0.00	29.901 
15:45	78.3	78.3	79.5	51	58.7	0	2	270	0.00	29.895 
15:50	78.1	78.1	79.3	50	57.9	1	5	270	0.00	29.895 
15:55	77.6	77.6	79.0	50	57.5	1	3	270	0.00	29.895 
16:00	77.2	77.2	78.8	52	58.2	1	4	270	0.00	29.900 
16:05	77.2	77.2	78.8	52	58.2	0	3	270	0.00	29.900 
16:10	77.2	77.2	78.8	52	58.2	0	3	315	0.00	29.900 
16:15	77.2	77.2	78.8	52	58.2	1	4	270	0.00	29.898 
16:20	77.2	77.2	78.8	52	58.2	1	5	270	0.00	29.898 
16:25	77.2	77.2	78.8	52	58.2	1	3	270	0.00	29.898 
16:30	77.0	77.0	78.7	53	58.5	0	1	270	0.00	29.896 
16:35	76.8	76.8	78.5	52	57.8	0	2	270	0.00	29.896 
16:40	76.8	76.8	78.5	53	58.4	0	3	270	0.00	29.896 
16:45	76.7	76.7	78.5	52	57.7	0	3	270	0.00	29.893 
16:50	76.7	76.7	78.5	54	58.8	0	1	270	0.00	29.893 
16:55	76.7	76.7	78.5	53	58.3	0	1	270	0.00	29.893 
17:00	76.7	76.7	78.5	53	58.3	0	1	270	0.00	29.887 
17:05	76.7	76.7	78.5	53	58.3	0	2	202	0.00	29.887 
17:10	76.7	76.7	78.5	52	57.7	1	4	270	0.00	29.887 
17:15	76.7	76.7	78.4	51	57.2	0	2	270	0.00	29.884 
17:20	76.8	76.8	78.5	52	57.8	1	4	270	0.00	29.884 
17:25	77.2	77.2	78.8	52	58.2	0	2	225	0.00	29.884 
17:30	77.4	77.4	78.9	51	57.8	0	2	225	0.00	29.883 
17:35	77.4	77.4	78.8	50	57.3	0	1	225	0.00	29.883 
17:40	77.4	77.4	78.8	49	56.7	0	1	225	0.00	29.883 
17:45	77.0	77.0	78.6	49	56.4	1	5	270	0.00	29.880 
17:50	76.7	76.7	78.4	49	56.1	1	5	270	0.00	29.880 
17:55	76.3	76.3	78.2	50	56.3	0	2	270	0.00	29.880 
18:00	76.0	76.0	78.1	51	56.5	0	1	270	0.00	29.881 
18:05	75.8	75.8	78.0	52	56.9	0	1	270	0.00	29.881 
18:10	75.6	75.6	77.9	52	56.7	0	1	270	0.00	29.881 
18:15	75.4	75.4	77.8	53	57.1	0	1	270	0.00	29.878 
18:20	75.3	75.3	77.7	53	57.0	0	2	270	0.00	29.878 
18:25	75.3	75.3	77.7	53	57.0	0	2	270	0.00	29.878 
18:30	75.1	75.1	77.6	54	57.3	0	0	---	0.00	29.875 
18:35	74.9	74.9	74.9	54	57.1	0	1	270	0.00	29.875 
18:40	74.7	74.7	74.7	54	56.9	0	1	270	0.00	29.875 
18:45	74.6	74.6	74.6	54	56.8	0	1	270	0.00	29.873 
18:50	74.6	74.6	74.6	54	56.8	0	1	270	0.00	29.873 
18:55	74.4	74.4	74.4	54	56.7	0	1	270	0.00	29.873 
19:00	74.4	74.4	74.4	54	56.7	0	1	270	0.00	29.873 
19:05	74.2	74.2	74.2	54	56.5	0	1	270	0.00	29.873 
19:10	74.0	74.0	74.0	55	56.8	0	1	270	0.00	29.873 
19:15	73.9	73.9	73.9	55	56.7	0	0	---	0.00	29.873 
19:20	73.7	73.7	73.7	55	56.5	0	1	270	0.00	29.873 
19:25	73.7	73.7	73.7	55	56.5	0	0	---	0.00	29.873 
19:30	73.5	73.5	73.5	56	56.8	0	0	---	0.00	29.872 
19:35	73.5	73.5	73.5	56	56.8	0	0	---	0.00	29.872 
19:40	73.3	73.3	73.3	56	56.6	0	1	270	0.00	29.872 
19:45	73.3	73.3	73.3	56	56.6	0	1	270	0.00	29.880 
19:50	73.3	73.3	73.3	57	57.1	0	2	270	0.00	29.880 
19:55	73.3	73.3	73.3	57	57.1	0	2	270	0.00	29.880 
20:00	73.3	73.3	73.3	57	57.1	0	3	270	0.00	29.881 
20:05	73.3	73.3	73.3	57	57.1	0	1	315	0.00	29.881 
20:10	73.3	73.3	73.3	57	57.1	0	5	90	0.00	29.881 
20:15	73.3	73.3	73.3	57	57.1	0	2	90	0.00	29.878 
20:20	73.3	73.3	73.3	57	57.1	0	3	90	0.00	29.878 
20:25	73.3	73.3	73.3	58	57.6	1	3	292	0.00	29.878 
20:30	73.2	73.2	73.2	60	58.5	0	1	292	0.00	29.878 
20:35	72.8	72.8	72.8	61	58.6	0	2	248	0.00	29.878 
20:40	72.3	72.3	72.3	62	58.5	0	1	248	0.00	29.878 
20:45	72.0	72.0	72.0	62	58.3	0	3	248	0.00	29.884 
20:50	71.8	71.8	71.8	63	58.5	0	5	270	0.00	29.884 
20:55	71.6	71.6	71.6	63	58.3	0	1	270	0.00	29.884 
21:00	71.3	71.3	71.3	63	58.0	0	0	---	0.00	29.882 
21:05	71.1	71.1	71.1	64	58.3	0	1	270	0.00	29.882 
21:10	70.9	70.9	70.9	64	58.1	0	1	270	0.00	29.882 
21:15	70.8	70.8	70.8	65	58.4	0	0	---	0.00	29.876 
21:20	70.4	70.4	70.4	65	58.1	0	1	270	0.00	29.876 
21:25	70.3	70.3	70.3	66	58.4	0	0	---	0.00	29.876 
21:30	70.1	70.1	70.1	66	58.2	0	0	---	0.00	29.873 
21:35	69.9	69.9	69.9	66	58.0	0	0	---	0.00	29.873 
21:40	69.8	69.8	69.8	67	58.3	0	1	270	0.00	29.873 
21:45	69.8	69.8	69.8	67	58.3	0	1	270	0.00	29.877 
21:50	69.8	69.8	69.8	67	58.3	0	1	270	0.00	29.877 
21:55	69.8	69.8	69.8	67	58.3	0	1	270	0.00	29.877 
22:00	69.8	69.8	69.8	68	58.7	0	1	270	0.00	29.880 
22:05	69.8	69.8	69.8	68	58.7	0	0	---	0.00	29.880 
22:10	69.8	69.8	69.8	68	58.7	0	1	270	0.00	29.880 
22:15	69.8	69.8	69.8	68	58.7	0	1	270	0.00	29.872 
22:20	69.8	69.8	69.8	68	58.7	0	0	---	0.00	29.872 
22:25	69.8	69.8	69.8	68	58.7	0	1	270	0.00	29.872 
22:30	69.8	69.8	69.8	68	58.7	0	1	270	0.00	29.872 
22:35	69.8	69.8	69.8	68	58.7	0	1	270	0.00	29.872 
22:40	69.6	69.6	69.6	68	58.6	0	1	270	0.00	29.872 
22:45	69.4	69.4	69.4	68	58.4	0	3	270	0.00	29.869 
22:50	69.3	69.3	69.3	69	58.7	0	0	---	0.00	29.869 
22:55	69.1	69.1	69.1	69	58.5	0	1	270	0.00	29.869 
23:00	68.9	68.9	68.9	70	58.7	0	1	315	0.00	29.871 
23:05	68.8	68.8	68.8	71	59.0	0	1	315	0.00	29.871 
23:10	68.6	68.6	68.6	71	58.8	0	3	315	0.00	29.871 
23:15	68.4	68.4	68.4	71	58.6	0	1	315	0.00	29.867 
23:20	68.4	68.4	68.4	72	59.0	0	1	315	0.00	29.867 
23:25	68.3	68.3	68.3	72	58.9	0	1	315	0.00	29.867 
23:30	68.3	68.3	68.3	72	58.9	0	1	315	0.00	29.866 
23:35	68.1	68.1	68.1	72	58.7	0	2	315	0.00	29.866 
23:40	67.9	67.9	67.9	72	58.5	0	1	315	0.00	29.866 
23:45	67.9	67.9	67.9	73	58.9	0	2	315	0.00	29.865 
23:50	67.8	67.8	67.8	73	58.8	0	0	---	0.00	29.865 
23:55	67.6	67.6	67.6	73	58.6	0	1	315	0.00	29.865 

CoCoRaHS
IN-AL-39
A2 Web Hosting
Creative Commons License
GoDaddy
search engine by freefind advanced

loaded 2018-11-22 06:27:51 • last modified 2010-11-18 10:43:29
Privacy PolicyDisclaimer
• wx.awcolley.com is powered by PmWiki v.2002016 •
• all content (unless otherwise noted) © 2018 A W Colley